createdAt,value
2022-11-01T00:03:46.360Z,11.62
2022-11-01T00:08:39.620Z,11.57
2022-11-01T00:13:34.777Z,11.65
2022-11-01T00:18:28.682Z,11.75
2022-11-01T00:23:22.684Z,11.64
2022-11-01T00:28:16.224Z,11.62
2022-11-01T00:33:10.855Z,11.53
2022-11-01T00:38:05.091Z,11.51
2022-11-01T00:42:58.394Z,11.60
2022-11-01T00:47:51.739Z,11.55
2022-11-01T00:52:46.358Z,11.53
2022-11-01T00:57:39.681Z,11.59
2022-11-01T01:02:33.298Z,11.52
2022-11-01T01:07:26.601Z,11.57
2022-11-01T01:12:21.366Z,11.51
2022-11-01T01:17:14.861Z,11.56
2022-11-01T01:22:08.169Z,11.43
2022-11-01T01:27:01.668Z,11.52
2022-11-01T01:31:56.421Z,11.43
2022-11-01T01:36:49.738Z,11.36
2022-11-01T01:41:58.144Z,11.41
2022-11-01T01:46:51.401Z,11.28
2022-11-01T01:51:46.413Z,11.34
2022-11-01T01:56:39.789Z,11.41
2022-11-01T02:01:35.305Z,11.31
2022-11-01T02:06:29.255Z,11.16
2022-11-01T02:11:24.230Z,11.19
2022-11-01T02:16:45.301Z,11.33
2022-11-01T02:21:59.635Z,11.30
2022-11-01T02:27:14.135Z,11.40
2022-11-01T02:32:21.163Z,11.44
2022-11-01T02:37:23.916Z,11.48
2022-11-01T02:42:26.776Z,11.45
2022-11-01T02:47:22.037Z,11.55
2022-11-01T02:52:23.441Z,11.59
2022-11-01T02:57:31.921Z,11.51
2022-11-01T03:02:40.391Z,11.40
2022-11-01T03:07:34.150Z,11.33
2022-11-01T03:12:34.052Z,11.28
2022-11-01T03:17:40.479Z,11.15
2022-11-01T03:22:43.914Z,11.08
2022-11-01T03:27:42.410Z,11.10
2022-11-01T03:32:44.725Z,11.08
2022-11-01T03:37:45.251Z,11.18
2022-11-01T03:42:41.670Z,11.08
2022-11-01T03:47:36.661Z,11.14
2022-11-01T03:52:29.939Z,11.15
2022-11-01T03:57:23.775Z,11.18
2022-11-01T04:02:17.004Z,11.24
2022-11-01T04:07:11.631Z,11.25
2022-11-01T04:12:05.091Z,11.34
2022-11-01T04:17:15.520Z,11.41
2022-11-01T04:22:08.796Z,11.46
2022-11-01T04:27:03.434Z,11.49
2022-11-01T04:31:56.763Z,11.50
2022-11-01T04:36:50.016Z,11.43
2022-11-01T04:41:43.315Z,11.46
2022-11-01T04:46:38.054Z,11.44
2022-11-01T04:51:31.337Z,11.48
2022-11-01T04:56:24.697Z,11.46
2022-11-01T05:01:18.008Z,11.48
2022-11-01T05:06:12.785Z,11.51
2022-11-01T05:11:06.366Z,11.57
2022-11-01T05:16:18.417Z,11.57
2022-11-01T05:21:13.912Z,11.55
2022-11-01T05:26:07.393Z,11.50
2022-11-01T05:31:00.710Z,11.46
2022-11-01T05:35:53.945Z,11.38
2022-11-01T05:40:48.745Z,11.40
2022-11-01T05:45:42.601Z,11.53
2022-11-01T05:50:35.864Z,11.47
2022-11-01T05:55:29.148Z,11.49
2022-11-01T06:00:23.811Z,11.44
2022-11-01T06:05:17.235Z,11.39
2022-11-01T06:10:10.994Z,11.43
2022-11-01T06:15:04.477Z,11.49
2022-11-01T06:19:59.161Z,11.34
2022-11-01T06:24:52.684Z,11.45
2022-11-01T06:29:45.978Z,11.41
2022-11-01T06:34:42.340Z,11.36
2022-11-01T06:39:39.550Z,11.49
2022-11-01T06:44:32.935Z,11.58
2022-11-01T06:49:26.231Z,11.68
2022-11-01T06:54:19.528Z,11.75
2022-11-01T06:59:14.845Z,11.76
2022-11-01T07:04:08.211Z,11.68
2022-11-01T07:09:01.933Z,11.72
2022-11-01T07:13:55.307Z,11.75
2022-11-01T07:18:50.021Z,11.81
2022-11-01T07:23:43.270Z,11.87
2022-11-01T07:28:36.553Z,11.94
2022-11-01T07:33:29.862Z,11.96
2022-11-01T07:38:24.615Z,12.04
2022-11-01T07:43:19.046Z,12.10
2022-11-01T07:48:15.117Z,12.17
2022-11-01T07:53:11.411Z,12.23
2022-11-01T07:58:07.089Z,12.25
2022-11-01T08:03:04.438Z,12.27
2022-11-01T08:07:57.959Z,12.35
2022-11-01T08:12:51.304Z,12.37
2022-11-01T08:17:45.942Z,12.38
2022-11-01T08:22:41.132Z,12.45
2022-11-01T08:27:35.462Z,12.55
2022-11-01T08:32:28.921Z,12.68
2022-11-01T08:37:23.745Z,12.79
2022-11-01T08:42:17.066Z,12.93
2022-11-01T08:47:11.480Z,12.94
2022-11-01T08:52:05.937Z,12.98
2022-11-01T08:57:02.581Z,13.05
2022-11-01T09:01:55.976Z,13.05
2022-11-01T09:06:49.363Z,13.08
2022-11-01T09:11:42.678Z,13.14
2022-11-01T09:16:37.369Z,13.17
2022-11-01T09:21:32.013Z,13.24
2022-11-01T09:26:27.103Z,13.25
2022-11-01T09:31:21.708Z,13.32
2022-11-01T09:36:17.055Z,13.41
2022-11-01T09:41:25.507Z,13.46
2022-11-01T09:46:26.304Z,13.53
2022-11-01T09:51:25.374Z,13.54
2022-11-01T09:56:30.555Z,13.50
2022-11-01T10:01:54.591Z,13.59
2022-11-01T10:07:00.670Z,13.66
2022-11-01T10:12:16.350Z,13.74
2022-11-01T10:17:15.463Z,13.84
2022-11-01T10:22:19.438Z,13.86
2022-11-01T10:27:21.764Z,13.95
2022-11-01T10:32:29.319Z,14.04
2022-11-01T10:37:32.787Z,14.12
2022-11-01T10:42:30.721Z,14.19
2022-11-01T10:47:26.359Z,14.30
2022-11-01T10:52:29.353Z,14.44
2022-11-01T10:57:40.137Z,14.50
2022-11-01T11:02:41.299Z,14.54
2022-11-01T11:07:36.089Z,14.57
2022-11-01T11:12:32.107Z,14.66
2022-11-01T11:17:31.383Z,14.83
2022-11-01T11:22:26.432Z,14.87
2022-11-01T11:27:25.271Z,15.01
2022-11-01T11:32:23.251Z,15.20
2022-11-01T11:37:23.862Z,15.16
2022-11-01T11:42:25.750Z,15.20
2022-11-01T11:47:24.843Z,15.22
2022-11-01T11:52:26.754Z,15.27
2022-11-01T11:57:26.927Z,15.26
2022-11-01T12:02:25.829Z,15.36
2022-11-01T12:07:29.595Z,15.35
2022-11-01T12:12:28.994Z,15.36
2022-11-01T12:17:36.679Z,15.40
2022-11-01T12:22:35.299Z,15.61
2022-11-01T12:27:33.994Z,15.52
2022-11-01T12:32:33.837Z,15.53
2022-11-01T12:37:35.030Z,15.54
2022-11-01T12:42:38.333Z,15.61
2022-11-01T12:47:39.914Z,15.48
2022-11-01T12:52:42.349Z,15.61
2022-11-01T12:57:37.092Z,15.52
2022-11-01T13:02:54.620Z,15.47
2022-11-01T13:08:04.807Z,15.52
2022-11-01T13:13:14.970Z,15.51
2022-11-01T13:18:20.514Z,15.54
2022-11-01T13:23:26.589Z,15.49
2022-11-01T13:28:48.769Z,15.39
2022-11-01T13:33:52.546Z,15.48
2022-11-01T13:38:58.428Z,15.58
2022-11-01T13:44:00.689Z,15.57
2022-11-01T13:50:04.925Z,15.62
2022-11-01T13:55:16.081Z,15.52
2022-11-01T14:00:44.243Z,15.46
2022-11-01T14:05:40.224Z,15.43
2022-11-01T14:10:50.182Z,15.45
2022-11-01T14:16:19.488Z,15.53
2022-11-01T14:21:31.402Z,15.65
2022-11-01T14:27:25.407Z,15.75
2022-11-01T14:32:23.674Z,15.61
2022-11-01T14:37:27.078Z,15.40
2022-11-01T14:42:27.146Z,15.22
2022-11-01T14:47:41.091Z,15.13
2022-11-01T14:52:42.976Z,15.01
2022-11-01T14:57:36.845Z,14.97
2022-11-01T15:02:32.839Z,14.91
2022-11-01T15:07:31.306Z,14.82
2022-11-01T15:12:28.319Z,14.79
2022-11-01T15:17:25.570Z,14.73
2022-11-01T15:22:25.103Z,14.66
2022-11-01T15:27:24.040Z,14.57
2022-11-01T15:32:26.670Z,14.46
2022-11-01T15:37:26.029Z,14.36
2022-11-01T15:42:24.467Z,14.26
2022-11-01T15:47:23.571Z,14.23
2022-11-01T15:52:23.017Z,14.16
2022-11-01T15:57:23.883Z,14.06
2022-11-01T16:02:26.018Z,14.00
2022-11-01T16:07:23.308Z,13.89
2022-11-01T16:12:21.205Z,13.83
2022-11-01T16:17:32.909Z,13.87
2022-11-01T16:22:35.060Z,13.82
2022-11-01T16:27:29.669Z,13.80
2022-11-01T16:32:28.900Z,13.71
2022-11-01T16:37:24.860Z,13.72
2022-11-01T16:42:21.086Z,13.67
2022-11-01T16:47:17.446Z,13.59
2022-11-01T16:52:12.527Z,13.55
2022-11-01T16:57:06.392Z,13.46
2022-11-01T17:02:03.844Z,13.35
2022-11-01T17:06:59.132Z,13.34
2022-11-01T17:11:54.333Z,13.27
2022-11-01T17:16:49.663Z,13.11
2022-11-01T17:21:44.387Z,13.08
2022-11-01T17:26:37.793Z,12.91
2022-11-01T17:31:31.111Z,12.89
2022-11-01T17:36:24.403Z,12.88
2022-11-01T17:41:21.104Z,12.85
2022-11-01T17:51:53.347Z,12.60
2022-11-01T17:56:50.086Z,12.51
2022-11-01T18:01:51.149Z,12.64
2022-11-01T18:06:44.604Z,12.68
2022-11-01T18:17:35.769Z,12.79
2022-11-01T18:22:45.549Z,12.73
2022-11-01T18:27:40.209Z,12.72
2022-11-01T18:33:10.410Z,12.56
2022-11-01T18:38:39.885Z,12.74
2022-11-01T18:43:38.276Z,12.62
2022-11-01T18:48:40.745Z,12.32
2022-11-01T18:53:36.977Z,12.23
2022-11-01T18:58:30.336Z,12.21
2022-11-01T19:03:32.170Z,12.04
2022-11-01T19:08:27.957Z,11.97
2022-11-01T19:13:31.680Z,11.99
2022-11-01T19:18:26.994Z,12.10
2022-11-01T19:23:36.164Z,12.10
2022-11-01T19:28:51.749Z,11.99
2022-11-01T19:34:05.596Z,12.04
2022-11-01T19:39:00.143Z,12.07
2022-11-01T19:43:54.943Z,12.08
2022-11-01T19:48:49.611Z,12.10
2022-11-01T19:53:47.875Z,12.17
2022-11-01T19:58:48.903Z,12.20
2022-11-01T20:03:47.140Z,12.12
2022-11-01T20:08:50.894Z,12.11
2022-11-01T20:13:50.565Z,12.00
2022-11-01T20:18:49.262Z,12.04
2022-11-01T20:23:46.947Z,12.07
2022-11-01T20:28:46.065Z,11.92
2022-11-01T20:33:45.135Z,11.98
2022-11-01T20:38:39.143Z,11.97
2022-11-01T20:43:35.327Z,11.96
2022-11-01T20:48:31.428Z,11.90
2022-11-01T20:53:28.667Z,11.84
2022-11-01T20:58:23.284Z,11.71
2022-11-01T21:03:21.490Z,11.44
2022-11-01T21:08:31.166Z,11.33
2022-11-01T21:13:33.724Z,11.48
2022-11-01T21:19:45.165Z,11.42
2022-11-01T21:24:52.352Z,11.52
2022-11-01T21:30:18.466Z,11.59
2022-11-01T21:35:47.320Z,11.60
2022-11-01T21:47:33.640Z,11.37
2022-11-01T21:52:37.284Z,11.32
2022-11-01T21:57:33.122Z,11.31
2022-11-01T22:02:26.494Z,11.31
2022-11-01T22:07:21.148Z,11.26
2022-11-01T22:12:15.826Z,11.12
2022-11-01T22:17:09.164Z,11.15
2022-11-01T22:22:02.393Z,11.07
2022-11-01T22:26:55.682Z,11.08
2022-11-01T22:31:50.320Z,11.06
2022-11-01T22:36:43.613Z,10.90
2022-11-01T22:41:39.516Z,11.00
2022-11-01T22:46:45.549Z,11.10
2022-11-01T22:51:44.943Z,11.20
2022-11-01T22:56:38.183Z,11.32
2022-11-01T23:01:34.723Z,11.38
2022-11-01T23:06:36.064Z,11.16
2022-11-01T23:11:49.464Z,10.99
2022-11-01T23:16:45.649Z,10.85
2022-11-01T23:21:39.146Z,10.92
2022-11-01T23:26:34.302Z,10.98
2022-11-01T23:31:30.211Z,11.13
2022-11-01T23:37:00.948Z,11.07
2022-11-01T23:41:55.914Z,11.01
2022-11-01T23:46:49.222Z,10.98
2022-11-01T23:51:42.783Z,10.78
2022-11-01T23:56:36.101Z,10.82
